Details From EGHH - Bournemouth
To EGHI - Southampton
Flight Number -
Tags generated
Created
Modified
Stats Distance 22 nm / 41 km
Max Altitude 100 ft / 30 m
Waypoints 3
Social Downloads 7
Likes 0
Share

Download

Looking for another format? Having issues loading an existing format? Contact us
Advertisement - Login to hide

Notes

Basic altitude profile: - Ascent Rate: 1300ft/min - Ascent Speed: 150kts - Cruise Altitude: 25000ft - Cruise Speed: 175kts - Descent Rate: 1100ft/min - Descent Speed: 110kts Options: - Use NATs: no - Use PACOTS: yes - Use low airways: yes - Use high airways: yes

Route

EGHH SAM EGHI

ID Type Via Altitude (ft/m) Position (lat/lon) Dist (leg/tot) Name
O EGHH APT - 0 / 0 50.78007 / -1.84253 - / 0 nm Bournemouth
SAM VOR - 100 / 30 50.95528 / -1.34500 21 / 21 nm SOUTHAMPTON VOR-DME
O EGHI APT - 0 / 0 50.95026 / -1.35681 0 / 22 nm Southampton

Altitude Profile

Advertisement - Login to hide

EGHH

Details ICAO EGHH (BOH)
Name Bournemouth
Region United Kingdom
Timezone Europe/London (UTC+1.0)
Stats Elevation 38 ft / 12 m (AMSL)
Location 50.780100° -1.842480°
Runways 1
Magnetic Variation 0.312° W

METAR

EGHH 261650Z 23014KT 9999 SCT025 SCT034 17/12 Q1023

Decode

TAF

Not found

Departure Runways

ID Width Length Bearing (true/mag) Surface Threshold Overrun Markings Lighting
08 150 ft / 46 m 7,443 ft / 2,269 m 75.26° / 75.57° ASPHALT 1,411 ft / 430 m 0 ft / 0 m PREC-APP EDGE THRESHOLD ALSF-I REIL-OMNI
26 150 ft / 46 m 7,443 ft / 2,269 m 255.28° / 255.60° ASPHALT 0 ft / 0 m 167 ft / 51 m PREC-APP EDGE THRESHOLD CALVERT TDZ REIL-OMNI

EGHI

Details ICAO EGHI (SOU)
Name Southampton
Region United Kingdom
Timezone Europe/London (UTC+1.0)
Stats Elevation 41 ft / 12 m (AMSL)
Location 50.950300° -1.356790°
Runways 1
Magnetic Variation 0.163° W

METAR

EGHI 261650Z 24007KT 200V280 9999 BKN028 18/12 Q1022

Decode

TAF

Not found

Destination Runways

ID Width Length Bearing (true/mag) Surface Threshold Overrun Markings Lighting
02 121 ft / 37 m 5,651 ft / 1,722 m 19.36° / 19.52° ASPHALT 239 ft / 73 m 66 ft / 20 m UK-PREC-APP CENTERLINE EDGE THRESHOLD MALS
20 121 ft / 37 m 5,651 ft / 1,722 m 199.36° / 199.53° ASPHALT 151 ft / 46 m 0 ft / 0 m UK-PREC-APP CENTERLINE EDGE THRESHOLD MALS

Approach Navaids

Runway Type Ident Frequency Range Bearing (true/mag) Slope Elevation
20 LOC-ILS ISN 110.75 MHz 18 nm / 33 km 199.35° / 199.51 ° - 41 ft / 12 m (AMSL)
20 GS ISN 110.75 MHz 10 nm / 19 km 199.35° / 199.51 ° 3.10° 41 ft / 12 m (AMSL)
20 DME ISN 110.75 MHz 18 nm / 33 km - - 54 ft / 16 m (AMSL)

Popular Alternatives